createdAt,value
2023-02-23T00:02:07.186Z,0.90
2023-02-23T00:04:35.590Z,0.68
2023-02-23T00:07:03.815Z,0.77
2023-02-23T00:09:36.103Z,0.60
2023-02-23T00:12:08.692Z,1.10
2023-02-23T00:14:38.478Z,0.50
2023-02-23T00:17:11.438Z,0.95
2023-02-23T00:19:39.356Z,1.60
2023-02-23T00:22:07.054Z,0.70
2023-02-23T00:24:37.429Z,3.17
2023-02-23T00:27:07.665Z,0.65
2023-02-23T00:29:40.553Z,0.75
2023-02-23T00:32:08.817Z,1.30
2023-02-23T00:34:37.609Z,0.60
2023-02-23T00:37:05.899Z,1.13
2023-02-23T00:39:34.139Z,0.75
2023-02-23T00:42:03.890Z,0.80
2023-02-23T00:44:35.285Z,0.77
2023-02-23T00:47:03.481Z,1.52
2023-02-23T00:49:31.225Z,1.30
2023-02-23T00:51:59.237Z,0.68
2023-02-23T00:54:30.382Z,0.73
2023-02-23T00:56:58.238Z,0.85
2023-02-23T00:59:25.772Z,0.60
2023-02-23T01:01:53.344Z,0.70
2023-02-23T01:04:20.960Z,0.60
2023-02-23T01:06:48.648Z,5.15
2023-02-23T01:09:22.477Z,1.73
2023-02-23T01:11:50.330Z,0.63
2023-02-23T01:14:17.866Z,0.50
2023-02-23T01:16:45.694Z,0.88
2023-02-23T01:19:14.114Z,2.83
2023-02-23T01:21:43.371Z,2.15
2023-02-23T01:24:12.578Z,0.90
2023-02-23T01:26:41.691Z,2.00
2023-02-23T01:29:10.630Z,1.02
2023-02-23T01:31:42.183Z,0.63
2023-02-23T01:34:12.542Z,1.27
2023-02-23T01:36:41.012Z,0.77
2023-02-23T01:39:09.872Z,0.90
2023-02-23T01:41:37.840Z,0.73
2023-02-23T01:44:28.784Z,0.73
2023-02-23T01:46:56.384Z,0.70
2023-02-23T01:49:28.458Z,1.42
2023-02-23T01:51:59.726Z,1.92
2023-02-23T01:54:29.730Z,0.65
2023-02-23T01:56:58.974Z,1.67
2023-02-23T01:59:45.719Z,0.63
2023-02-23T02:02:14.270Z,0.98
2023-02-23T02:04:46.096Z,0.90
2023-02-23T02:07:24.099Z,0.55
2023-02-23T02:10:11.837Z,0.93
2023-02-23T02:12:40.255Z,1.58
2023-02-23T02:15:09.394Z,0.90
2023-02-23T02:17:54.005Z,1.35
2023-02-23T02:20:33.075Z,1.08
2023-02-23T02:23:09.100Z,1.23
2023-02-23T02:25:36.629Z,0.93
2023-02-23T02:28:09.577Z,0.93
2023-02-23T02:30:38.222Z,0.90
2023-02-23T02:33:05.700Z,0.55
2023-02-23T02:35:38.774Z,1.02
2023-02-23T02:38:23.481Z,1.58
2023-02-23T02:41:04.387Z,4.28
2023-02-23T02:43:37.702Z,1.10
2023-02-23T02:48:39.346Z,0.82
2023-02-23T02:51:11.019Z,0.80
2023-02-23T02:53:53.889Z,1.35
2023-02-23T02:56:23.486Z,1.00
2023-02-23T02:58:52.160Z,1.30
2023-02-23T03:01:38.541Z,1.35
2023-02-23T03:04:38.804Z,1.48
2023-02-23T03:07:35.976Z,0.70
2023-02-23T03:10:24.671Z,1.27
2023-02-23T03:13:33.406Z,1.00
2023-02-23T03:16:45.264Z,2.53
2023-02-23T03:19:40.357Z,1.75
2023-02-23T03:22:44.973Z,1.67
2023-02-23T03:25:34.815Z,1.55
2023-02-23T03:28:20.481Z,0.95
2023-02-23T03:31:23.834Z,1.17
2023-02-23T03:34:42.066Z,2.22
2023-02-23T03:37:33.107Z,1.10
2023-02-23T03:40:47.943Z,1.52
2023-02-23T03:43:42.561Z,1.55
2023-02-23T03:46:29.861Z,2.08
2023-02-23T03:49:17.483Z,1.67
2023-02-23T03:52:07.088Z,1.52
2023-02-23T03:55:02.569Z,2.42
2023-02-23T03:57:49.295Z,1.95
2023-02-23T04:00:40.360Z,1.63
2023-02-23T04:03:27.641Z,0.98
2023-02-23T04:06:15.208Z,4.68
2023-02-23T04:09:01.684Z,1.38
2023-02-23T04:11:59.541Z,5.05
2023-02-23T04:14:37.202Z,1.38
2023-02-23T04:17:05.598Z,3.03
2023-02-23T04:19:33.050Z,1.27
2023-02-23T04:22:00.602Z,1.02
2023-02-23T04:24:28.143Z,1.27
2023-02-23T04:26:55.868Z,1.63
2023-02-23T04:29:23.419Z,0.98
2023-02-23T04:31:51.015Z,1.42
2023-02-23T04:34:18.550Z,2.60
2023-02-23T04:36:46.038Z,1.40
2023-02-23T04:39:13.585Z,3.03
2023-02-23T04:41:41.823Z,1.33
2023-02-23T04:44:09.297Z,2.22
2023-02-23T04:46:36.856Z,1.20
2023-02-23T04:49:04.904Z,2.40
2023-02-23T04:51:34.533Z,3.95
2023-02-23T04:54:03.288Z,0.93
2023-02-23T04:56:30.840Z,1.42
2023-02-23T04:58:58.335Z,1.10
2023-02-23T05:01:26.399Z,0.88
2023-02-23T05:03:54.406Z,4.68
2023-02-23T05:06:22.588Z,1.50
2023-02-23T05:08:50.179Z,2.60
2023-02-23T05:11:17.932Z,3.20
2023-02-23T05:13:45.564Z,1.70
2023-02-23T05:16:13.145Z,0.90
2023-02-23T05:18:40.639Z,1.27
2023-02-23T05:21:09.216Z,1.73
2023-02-23T05:23:36.970Z,1.40
2023-02-23T05:26:06.865Z,1.70
2023-02-23T05:28:35.417Z,1.85
2023-02-23T05:31:06.866Z,1.25
2023-02-23T05:33:34.953Z,1.52
2023-02-23T05:36:05.328Z,0.93
2023-02-23T05:38:32.803Z,1.42
2023-02-23T05:41:00.328Z,1.67
2023-02-23T05:43:28.399Z,1.17
2023-02-23T05:45:56.005Z,1.65
2023-02-23T05:48:24.181Z,0.93
2023-02-23T05:50:51.646Z,0.80
2023-02-23T05:53:19.198Z,1.88
2023-02-23T05:55:46.654Z,3.60
2023-02-23T05:58:14.918Z,1.33
2023-02-23T06:00:42.412Z,0.93
2023-02-23T06:03:09.975Z,3.25
2023-02-23T06:05:37.504Z,1.38
2023-02-23T06:08:05.110Z,0.80
2023-02-23T06:10:32.627Z,1.42
2023-02-23T06:13:00.155Z,1.52
2023-02-23T06:15:29.866Z,1.20
2023-02-23T06:17:57.836Z,2.30
2023-02-23T06:20:25.491Z,0.80
2023-02-23T06:22:52.985Z,1.48
2023-02-23T06:25:20.469Z,0.90
2023-02-23T06:27:47.941Z,2.38
2023-02-23T06:30:15.624Z,5.80
2023-02-23T06:32:43.149Z,0.98
2023-02-23T06:35:10.745Z,2.30
2023-02-23T06:37:38.273Z,1.42
2023-02-23T06:40:06.188Z,1.48
2023-02-23T06:42:35.068Z,0.90
2023-02-23T06:45:03.002Z,1.58
2023-02-23T06:47:30.467Z,2.00
2023-02-23T06:49:57.987Z,2.97
2023-02-23T06:52:26.995Z,1.90
2023-02-23T06:54:54.501Z,1.17
2023-02-23T06:57:22.497Z,2.15
2023-02-23T06:59:49.992Z,0.90
2023-02-23T07:02:17.737Z,4.45
2023-02-23T07:04:45.276Z,1.95
2023-02-23T07:07:13.659Z,1.30
2023-02-23T07:09:41.843Z,1.17
2023-02-23T07:12:10.024Z,1.52
2023-02-23T07:14:38.371Z,0.93
2023-02-23T07:17:05.999Z,0.50
2023-02-23T07:19:33.698Z,1.13
2023-02-23T07:22:01.227Z,1.40
2023-02-23T07:24:29.159Z,1.13
2023-02-23T07:26:57.444Z,0.93
2023-02-23T07:29:25.000Z,2.45
2023-02-23T07:31:52.538Z,2.13
2023-02-23T07:34:20.083Z,1.15
2023-02-23T07:36:47.614Z,1.10
2023-02-23T07:39:15.814Z,1.83
2023-02-23T07:41:43.500Z,1.45
2023-02-23T07:44:11.115Z,1.85
2023-02-23T07:46:38.629Z,0.90
2023-02-23T07:49:06.457Z,2.47
2023-02-23T07:51:34.062Z,0.85
2023-02-23T07:54:05.858Z,1.00
2023-02-23T07:56:34.077Z,1.48
2023-02-23T07:59:01.899Z,1.90
2023-02-23T08:01:29.460Z,1.80
2023-02-23T08:03:57.081Z,1.30
2023-02-23T08:06:24.670Z,2.13
2023-02-23T08:08:52.222Z,1.38
2023-02-23T08:11:20.153Z,1.98
2023-02-23T08:13:47.842Z,1.27
2023-02-23T08:16:17.225Z,2.45
2023-02-23T08:18:44.821Z,2.40
2023-02-23T08:21:12.660Z,2.67
2023-02-23T08:23:40.183Z,1.10
2023-02-23T08:26:07.718Z,1.95
2023-02-23T08:28:35.211Z,1.25
2023-02-23T08:31:02.807Z,1.05
2023-02-23T08:33:32.302Z,1.30
2023-02-23T08:36:03.291Z,0.85
2023-02-23T08:38:30.842Z,1.67
2023-02-23T08:41:01.022Z,1.50
2023-02-23T08:43:28.723Z,1.25
2023-02-23T08:45:56.197Z,1.73
2023-02-23T08:48:25.155Z,1.40
2023-02-23T08:50:56.398Z,2.33
2023-02-23T08:53:26.397Z,0.93
2023-02-23T08:56:01.338Z,2.80
2023-02-23T08:58:29.484Z,1.08
2023-02-23T09:00:57.316Z,1.67
2023-02-23T09:03:26.821Z,1.48
2023-02-23T09:05:54.346Z,0.90
2023-02-23T09:08:22.320Z,1.15
2023-02-23T09:10:49.877Z,1.60
2023-02-23T09:13:17.994Z,2.38
2023-02-23T09:15:45.617Z,3.63
2023-02-23T09:18:18.302Z,0.88
2023-02-23T09:20:46.570Z,1.55
2023-02-23T09:23:14.416Z,1.02
2023-02-23T09:25:43.977Z,1.60
2023-02-23T09:28:18.793Z,0.80
2023-02-23T09:30:47.191Z,0.95
2023-02-23T09:33:14.975Z,1.48
2023-02-23T09:35:42.459Z,1.60
2023-02-23T09:38:10.452Z,1.10
2023-02-23T09:40:45.310Z,1.67
2023-02-23T09:43:15.017Z,2.67
2023-02-23T09:45:42.542Z,1.92
2023-02-23T09:48:14.828Z,2.38
2023-02-23T09:50:45.147Z,4.35
2023-02-23T09:53:12.649Z,1.48
2023-02-23T09:55:41.811Z,1.42
2023-02-23T09:58:17.826Z,1.73
2023-02-23T10:00:47.162Z,1.35
2023-02-23T10:03:22.177Z,1.33
2023-02-23T10:05:54.176Z,3.20
2023-02-23T10:08:21.622Z,1.40
2023-02-23T10:10:51.546Z,1.13
2023-02-23T10:13:28.189Z,1.08
2023-02-23T10:16:10.066Z,1.02
2023-02-23T10:18:48.591Z,4.45
2023-02-23T10:21:24.411Z,0.80
2023-02-23T10:24:02.680Z,1.25
2023-02-23T10:26:35.181Z,1.77
2023-02-23T10:29:02.726Z,1.48
2023-02-23T10:31:44.690Z,1.35
2023-02-23T10:34:16.540Z,1.20
2023-02-23T10:36:51.601Z,2.15
2023-02-23T10:39:19.161Z,1.70
2023-02-23T10:41:46.861Z,2.28
2023-02-23T10:44:22.362Z,0.90
2023-02-23T10:46:56.216Z,1.75
2023-02-23T10:49:25.203Z,1.30
2023-02-23T10:51:53.025Z,1.15
2023-02-23T10:54:40.153Z,1.05
2023-02-23T10:57:09.427Z,2.00
2023-02-23T10:59:37.019Z,1.40
2023-02-23T11:02:24.800Z,1.25
2023-02-23T11:04:56.657Z,2.00
2023-02-23T11:07:26.507Z,1.48
2023-02-23T11:09:54.276Z,1.58
2023-02-23T11:12:50.374Z,1.25
2023-02-23T11:15:49.114Z,2.65
2023-02-23T11:18:26.125Z,2.42
2023-02-23T11:20:54.153Z,1.70
2023-02-23T11:23:24.340Z,5.47
2023-02-23T11:25:53.711Z,3.45
2023-02-23T11:28:25.280Z,4.70
2023-02-23T11:30:52.840Z,1.30
2023-02-23T11:33:26.344Z,1.85
2023-02-23T11:36:00.756Z,2.22
2023-02-23T11:38:33.098Z,2.13
2023-02-23T11:41:00.568Z,2.40
2023-02-23T11:43:28.223Z,1.50
2023-02-23T11:45:58.362Z,3.03
2023-02-23T11:48:28.991Z,2.03
2023-02-23T11:50:57.277Z,2.65
2023-02-23T11:53:37.212Z,2.03
2023-02-23T11:56:11.754Z,2.35
2023-02-23T11:58:41.568Z,2.33
2023-02-23T12:01:14.261Z,1.50
2023-02-23T12:03:46.266Z,2.47
2023-02-23T12:06:28.297Z,5.57
2023-02-23T12:09:00.117Z,3.72
2023-02-23T12:11:29.878Z,1.02
2023-02-23T12:14:04.068Z,1.40
2023-02-23T12:16:38.715Z,3.33
2023-02-23T12:19:24.805Z,2.80
2023-02-23T12:21:58.261Z,2.53
2023-02-23T12:24:28.786Z,4.22
2023-02-23T12:27:13.572Z,1.20
2023-02-23T12:30:10.310Z,4.70
2023-02-23T12:32:37.776Z,2.33
2023-02-23T12:35:20.838Z,2.35
2023-02-23T12:37:59.264Z,3.47
2023-02-23T12:40:31.227Z,2.35
2023-02-23T12:42:58.696Z,5.82
2023-02-23T12:45:49.497Z,2.08
2023-02-23T12:48:35.687Z,5.32
2023-02-23T12:51:05.619Z,3.00
2023-02-23T12:53:43.341Z,2.53
2023-02-23T12:56:10.807Z,1.75
2023-02-23T12:58:50.701Z,2.03
2023-02-23T13:01:26.601Z,5.68
2023-02-23T13:03:58.404Z,2.08
2023-02-23T13:06:31.662Z,1.95
2023-02-23T13:09:12.484Z,2.65
2023-02-23T13:11:58.260Z,2.65
2023-02-23T13:14:37.880Z,4.53
2023-02-23T13:17:14.478Z,1.52
2023-02-23T13:19:51.435Z,5.32
2023-02-23T13:22:27.622Z,2.88
2023-02-23T13:24:56.793Z,2.90
2023-02-23T13:27:27.861Z,3.38
2023-02-23T13:29:56.014Z,3.92
2023-02-23T13:32:25.244Z,1.88
2023-02-23T13:35:03.514Z,5.10
2023-02-23T13:37:36.765Z,3.22
2023-02-23T13:40:26.880Z,2.17
2023-02-23T13:43:03.701Z,1.60
2023-02-23T13:45:42.475Z,2.53
2023-02-23T13:48:19.381Z,3.50
2023-02-23T13:50:47.351Z,6.28
2023-02-23T13:53:37.087Z,14.80
2023-02-23T13:56:24.714Z,3.33
2023-02-23T13:58:54.094Z,2.25
2023-02-23T14:01:23.407Z,2.47
2023-02-23T14:03:55.911Z,1.67
2023-02-23T14:06:24.835Z,3.53
2023-02-23T14:08:54.429Z,2.88
2023-02-23T14:11:51.771Z,2.35
2023-02-23T14:14:31.531Z,5.43
2023-02-23T14:17:22.202Z,2.38
2023-02-23T14:19:52.939Z,3.72
2023-02-23T14:22:22.743Z,2.33
2023-02-23T14:25:09.128Z,4.18
2023-02-23T14:27:44.989Z,3.33
2023-02-23T14:30:12.476Z,2.15
2023-02-23T14:32:41.443Z,3.28
2023-02-23T14:35:29.175Z,4.15
2023-02-23T14:37:59.474Z,3.22
2023-02-23T14:40:33.289Z,6.35
2023-02-23T14:43:02.437Z,3.53
2023-02-23T14:45:31.731Z,2.30
2023-02-23T14:48:13.394Z,5.47
2023-02-23T14:50:42.012Z,5.78
2023-02-23T14:53:32.297Z,5.68
2023-02-23T14:55:59.825Z,5.85
2023-02-23T14:58:29.776Z,3.38
2023-02-23T15:00:57.548Z,8.27
2023-02-23T15:03:25.521Z,3.40
2023-02-23T15:05:56.736Z,4.18
2023-02-23T15:08:25.428Z,3.70
2023-02-23T15:11:08.258Z,5.60
2023-02-23T15:13:41.096Z,5.97
2023-02-23T15:16:10.172Z,5.05
2023-02-23T15:18:39.211Z,5.57
2023-02-23T15:21:14.660Z,5.85
2023-02-23T15:23:44.799Z,6.35
2023-02-23T15:26:32.507Z,3.42
2023-02-23T15:29:14.246Z,6.75
2023-02-23T15:31:50.820Z,4.20
2023-02-23T15:34:28.248Z,7.32
2023-02-23T15:37:00.695Z,4.97
2023-02-23T15:39:43.662Z,6.00
2023-02-23T15:42:14.674Z,4.93
2023-02-23T15:44:44.935Z,2.92
2023-02-23T15:47:23.905Z,4.50
2023-02-23T15:52:49.630Z,3.58
2023-02-23T15:55:24.878Z,8.25
2023-02-23T15:58:01.625Z,7.05
2023-02-23T16:00:35.361Z,4.15
2023-02-23T16:03:03.805Z,11.38
2023-02-23T16:05:46.550Z,7.50
2023-02-23T16:10:47.790Z,3.75
2023-02-23T16:13:18.045Z,8.07
2023-02-23T16:15:46.158Z,5.10
2023-02-23T16:18:18.817Z,4.85
2023-02-23T16:20:58.827Z,6.70
2023-02-23T16:23:34.197Z,2.70
2023-02-23T16:26:08.182Z,6.38
2023-02-23T16:28:37.739Z,5.25
2023-02-23T16:31:06.379Z,7.88
2023-02-23T16:33:44.817Z,5.65
2023-02-23T16:36:12.580Z,5.55
2023-02-23T16:38:41.560Z,6.22
2023-02-23T16:41:20.255Z,6.40
2023-02-23T16:43:49.577Z,4.65
2023-02-23T16:46:18.218Z,7.97
2023-02-23T16:48:45.994Z,4.15
2023-02-23T16:51:18.619Z,8.43
2023-02-23T16:53:46.301Z,9.10
2023-02-23T16:56:15.634Z,8.10
2023-02-23T16:58:45.118Z,4.82
2023-02-23T17:01:14.164Z,5.38
2023-02-23T17:03:52.450Z,8.80
2023-02-23T17:06:20.838Z,3.33
2023-02-23T17:08:57.560Z,3.53
2023-02-23T17:11:26.381Z,2.35
2023-02-23T17:13:53.980Z,3.78
2023-02-23T17:16:21.814Z,4.32
2023-02-23T17:18:49.666Z,3.83
2023-02-23T17:21:23.485Z,5.50
2023-02-23T17:23:53.856Z,5.72
2023-02-23T17:26:23.084Z,5.82
2023-02-23T17:28:51.234Z,5.35
2023-02-23T17:31:19.776Z,6.22
2023-02-23T17:33:48.059Z,6.70
2023-02-23T17:36:17.729Z,7.32
2023-02-23T17:38:46.305Z,4.85
2023-02-23T17:41:15.871Z,2.63
2023-02-23T17:43:44.200Z,4.15
2023-02-23T17:46:12.374Z,7.78
2023-02-23T17:48:41.267Z,7.05
2023-02-23T17:51:09.696Z,6.82
2023-02-23T17:53:37.230Z,3.13
2023-02-23T17:56:05.068Z,4.63
2023-02-23T17:58:32.553Z,3.63
2023-02-23T18:01:01.029Z,5.80
2023-02-23T18:03:32.371Z,6.57
2023-02-23T18:06:07.101Z,7.05
2023-02-23T18:08:34.827Z,11.27
2023-02-23T18:11:03.168Z,7.78
2023-02-23T18:13:32.000Z,9.25
2023-02-23T18:16:01.107Z,7.07
2023-02-23T18:18:28.966Z,3.55
2023-02-23T18:20:58.812Z,6.97
2023-02-23T18:23:30.072Z,7.43
2023-02-23T18:26:06.144Z,4.18
2023-02-23T18:28:34.387Z,5.18
2023-02-23T18:31:02.869Z,6.13
2023-02-23T18:33:32.372Z,9.50
2023-02-23T18:36:00.130Z,4.47
2023-02-23T18:38:27.823Z,5.25
2023-02-23T18:40:55.398Z,5.68
2023-02-23T18:43:23.294Z,9.25
2023-02-23T18:45:50.777Z,6.70
2023-02-23T18:48:18.336Z,5.75
2023-02-23T18:50:46.574Z,7.45
2023-02-23T18:53:14.434Z,6.10
2023-02-23T18:55:42.896Z,8.07
2023-02-23T18:58:10.632Z,4.82
2023-02-23T19:00:43.995Z,7.72
2023-02-23T19:05:46.576Z,8.95
2023-02-23T19:08:16.498Z,4.82
2023-02-23T19:10:44.084Z,4.22
2023-02-23T19:13:11.823Z,4.65
2023-02-23T19:15:40.061Z,6.28
2023-02-23T19:18:07.569Z,5.53
2023-02-23T19:20:36.323Z,5.45
2023-02-23T19:23:04.637Z,7.47
2023-02-23T19:25:32.808Z,4.75
2023-02-23T19:28:00.516Z,6.05
2023-02-23T19:30:28.088Z,7.78
2023-02-23T19:32:56.030Z,8.13
2023-02-23T19:35:26.840Z,4.75
2023-02-23T19:37:55.694Z,6.03
2023-02-23T19:40:23.435Z,5.50
2023-02-23T19:42:51.881Z,5.75
2023-02-23T19:45:19.908Z,8.05
2023-02-23T19:47:47.545Z,11.77
2023-02-23T19:50:19.493Z,8.98
2023-02-23T19:52:48.192Z,8.82
2023-02-23T19:55:16.308Z,11.25
2023-02-23T19:57:44.139Z,15.45
2023-02-23T20:00:12.714Z,9.85
2023-02-23T20:02:43.511Z,8.30
2023-02-23T20:05:15.692Z,9.85
2023-02-23T20:07:43.317Z,9.55
2023-02-23T20:10:14.542Z,9.02
2023-02-23T20:12:42.877Z,11.07
2023-02-23T20:15:11.140Z,8.05
2023-02-23T20:17:40.576Z,8.07
2023-02-23T20:20:11.032Z,9.52
2023-02-23T20:22:41.953Z,11.20
2023-02-23T20:25:16.565Z,8.15
2023-02-23T20:27:45.636Z,9.98
2023-02-23T20:30:14.405Z,8.55
2023-02-23T20:32:42.122Z,9.57
2023-02-23T20:35:12.223Z,11.43
2023-02-23T20:37:40.429Z,12.68
2023-02-23T20:40:23.742Z,18.60
2023-02-23T20:42:52.487Z,8.27
2023-02-23T20:45:21.265Z,7.28
2023-02-23T20:47:52.652Z,9.32
2023-02-23T20:50:22.217Z,10.82
2023-02-23T20:52:50.195Z,5.63
2023-02-23T20:55:20.967Z,4.78
2023-02-23T20:57:49.155Z,9.50
2023-02-23T21:00:37.504Z,6.45
2023-02-23T21:03:05.788Z,4.68
2023-02-23T21:05:34.774Z,4.85
2023-02-23T21:08:03.908Z,6.13
2023-02-23T21:10:35.653Z,10.10
2023-02-23T21:13:03.662Z,4.43
2023-02-23T21:15:32.451Z,6.38
2023-02-23T21:18:00.383Z,5.13
2023-02-23T21:20:29.200Z,5.70
2023-02-23T21:22:57.019Z,4.03
2023-02-23T21:25:25.782Z,5.78
2023-02-23T21:27:55.132Z,5.38
2023-02-23T21:30:23.946Z,3.50
2023-02-23T21:32:52.676Z,7.55
2023-02-23T21:35:20.586Z,7.63
2023-02-23T21:37:48.560Z,10.82
2023-02-23T21:40:20.017Z,5.65
2023-02-23T21:42:48.421Z,13.38
2023-02-23T21:45:17.978Z,10.25
2023-02-23T21:47:46.022Z,6.57
2023-02-23T21:50:15.116Z,9.05
2023-02-23T21:52:44.405Z,6.40
2023-02-23T21:55:23.428Z,8.15
2023-02-23T21:57:52.511Z,8.63
2023-02-23T22:00:21.624Z,6.95
2023-02-23T22:02:49.827Z,6.88
2023-02-23T22:05:18.034Z,8.40
2023-02-23T22:07:50.370Z,6.90
2023-02-23T22:10:19.440Z,8.43
2023-02-23T22:12:47.201Z,7.30
2023-02-23T22:15:17.221Z,6.70
2023-02-23T22:17:44.922Z,5.40
2023-02-23T22:20:13.080Z,7.15
2023-02-23T22:22:40.666Z,4.60
2023-02-23T22:25:08.793Z,10.38
2023-02-23T22:27:39.323Z,6.35
2023-02-23T22:30:07.451Z,8.55
2023-02-23T22:32:35.121Z,13.82
2023-02-23T22:35:03.936Z,9.85
2023-02-23T22:37:32.657Z,18.33
2023-02-23T22:40:02.258Z,9.30
2023-02-23T22:42:30.504Z,8.80
2023-02-23T22:44:58.062Z,15.82
2023-02-23T22:47:25.654Z,8.13
2023-02-23T22:49:53.187Z,10.38
2023-02-23T22:52:21.852Z,10.90
2023-02-23T22:54:51.921Z,9.82
2023-02-23T22:57:19.850Z,13.75
2023-02-23T22:59:55.630Z,10.07
2023-02-23T23:02:23.562Z,11.68
2023-02-23T23:04:52.060Z,4.70
2023-02-23T23:07:20.759Z,15.93
2023-02-23T23:09:48.392Z,6.25
2023-02-23T23:12:18.814Z,9.98
2023-02-23T23:14:48.261Z,7.45
2023-02-23T23:17:17.031Z,5.20
2023-02-23T23:19:44.656Z,8.63
2023-02-23T23:22:15.861Z,8.88
2023-02-23T23:24:46.487Z,11.00
2023-02-23T23:27:18.962Z,8.48
2023-02-23T23:29:48.054Z,12.57
2023-02-23T23:32:19.593Z,11.25
2023-02-23T23:34:48.847Z,6.05
2023-02-23T23:37:17.646Z,13.30
2023-02-23T23:39:46.441Z,7.30
2023-02-23T23:42:19.574Z,6.00
2023-02-23T23:44:47.619Z,7.10
2023-02-23T23:47:16.525Z,6.65
2023-02-23T23:49:44.896Z,7.40
2023-02-23T23:52:18.472Z,9.43
2023-02-23T23:54:45.987Z,8.55
2023-02-23T23:57:13.510Z,6.80
2023-02-23T23:59:46.560Z,4.97
